sensor_id;sensor_type;location;lat;lon;timestamp;temperature;humidity
3996;DHT22;2012;49.794;9.722;2023-07-28T00:01:56;17.40;99.90
3996;DHT22;2012;49.794;9.722;2023-07-28T00:04:23;17.40;99.90
3996;DHT22;2012;49.794;9.722;2023-07-28T00:06:50;17.50;99.90
3996;DHT22;2012;49.794;9.722;2023-07-28T00:09:17;17.40;99.90
3996;DHT22;2012;49.794;9.722;2023-07-28T00:11:44;17.50;99.90
3996;DHT22;2012;49.794;9.722;2023-07-28T00:14:11;17.50;99.90
3996;DHT22;2012;49.794;9.722;2023-07-28T00:16:37;17.50;99.90
3996;DHT22;2012;49.794;9.722;2023-07-28T00:19:04;17.50;99.90
3996;DHT22;2012;49.794;9.722;2023-07-28T00:21:31;17.50;99.90
3996;DHT22;2012;49.794;9.722;2023-07-28T00:23:58;17.50;99.90
3996;DHT22;2012;49.794;9.722;2023-07-28T00:26:25;17.50;99.90
3996;DHT22;2012;49.794;9.722;2023-07-28T00:28:52;17.40;99.90
3996;DHT22;2012;49.794;9.722;2023-07-28T00:31:18;17.50;99.90
3996;DHT22;2012;49.794;9.722;2023-07-28T00:33:46;17.50;99.90
3996;DHT22;2012;49.794;9.722;2023-07-28T00:36:13;17.50;99.90
3996;DHT22;2012;49.794;9.722;2023-07-28T00:38:39;17.40;99.90
3996;DHT22;2012;49.794;9.722;2023-07-28T00:41:06;17.50;99.90
3996;DHT22;2012;49.794;9.722;2023-07-28T00:43:33;17.40;99.90
3996;DHT22;2012;49.794;9.722;2023-07-28T00:46:00;17.40;99.90
3996;DHT22;2012;49.794;9.722;2023-07-28T00:48:27;17.40;99.90
3996;DHT22;2012;49.794;9.722;2023-07-28T00:50:54;17.40;99.90
3996;DHT22;2012;49.794;9.722;2023-07-28T00:53:22;17.40;99.90
3996;DHT22;2012;49.794;9.722;2023-07-28T00:55:50;17.40;99.90
3996;DHT22;2012;49.794;9.722;2023-07-28T00:58:18;17.50;99.90
3996;DHT22;2012;49.794;9.722;2023-07-28T01:00:45;17.50;99.90
3996;DHT22;2012;49.794;9.722;2023-07-28T01:03:13;17.50;99.90
3996;DHT22;2012;49.794;9.722;2023-07-28T01:06:08;17.50;99.90
3996;DHT22;2012;49.794;9.722;2023-07-28T01:08:53;17.40;99.90
3996;DHT22;2012;49.794;9.722;2023-07-28T01:11:22;17.40;99.90
3996;DHT22;2012;49.794;9.722;2023-07-28T01:13:49;17.40;99.90
3996;DHT22;2012;49.794;9.722;2023-07-28T01:16:16;17.40;99.90
3996;DHT22;2012;49.794;9.722;2023-07-28T01:18:43;17.40;99.90
3996;DHT22;2012;49.794;9.722;2023-07-28T01:21:21;17.40;99.90
3996;DHT22;2012;49.794;9.722;2023-07-28T01:24:06;17.40;99.90
3996;DHT22;2012;49.794;9.722;2023-07-28T01:26:38;17.40;99.90
3996;DHT22;2012;49.794;9.722;2023-07-28T01:29:06;17.40;99.90
3996;DHT22;2012;49.794;9.722;2023-07-28T01:31:34;17.40;99.90
3996;DHT22;2012;49.794;9.722;2023-07-28T01:34:01;17.30;99.90
3996;DHT22;2012;49.794;9.722;2023-07-28T01:36:27;17.40;99.90
3996;DHT22;2012;49.794;9.722;2023-07-28T01:38:54;17.40;99.90
3996;DHT22;2012;49.794;9.722;2023-07-28T01:41:21;17.40;99.90
3996;DHT22;2012;49.794;9.722;2023-07-28T01:43:48;17.40;99.90
3996;DHT22;2012;49.794;9.722;2023-07-28T01:46:15;17.40;99.90
3996;DHT22;2012;49.794;9.722;2023-07-28T01:48:42;17.30;99.90
3996;DHT22;2012;49.794;9.722;2023-07-28T01:51:09;17.40;99.90
3996;DHT22;2012;49.794;9.722;2023-07-28T01:53:36;17.40;99.90
3996;DHT22;2012;49.794;9.722;2023-07-28T01:56:03;17.40;99.90
3996;DHT22;2012;49.794;9.722;2023-07-28T01:58:31;17.40;99.90
3996;DHT22;2012;49.794;9.722;2023-07-28T02:00:58;17.40;99.90
3996;DHT22;2012;49.794;9.722;2023-07-28T02:03:25;17.40;99.90
3996;DHT22;2012;49.794;9.722;2023-07-28T02:05:52;17.40;99.90
3996;DHT22;2012;49.794;9.722;2023-07-28T02:08:19;17.40;99.90
3996;DHT22;2012;49.794;9.722;2023-07-28T02:10:46;17.40;99.90
3996;DHT22;2012;49.794;9.722;2023-07-28T02:13:13;17.50;99.90
3996;DHT22;2012;49.794;9.722;2023-07-28T02:15:40;17.40;99.90
3996;DHT22;2012;49.794;9.722;2023-07-28T02:18:07;17.50;99.90
3996;DHT22;2012;49.794;9.722;2023-07-28T02:20:34;17.40;99.90
3996;DHT22;2012;49.794;9.722;2023-07-28T02:23:02;17.40;99.90
3996;DHT22;2012;49.794;9.722;2023-07-28T02:25:29;17.40;99.90
3996;DHT22;2012;49.794;9.722;2023-07-28T02:27:57;17.40;99.90
3996;DHT22;2012;49.794;9.722;2023-07-28T02:30:24;17.40;99.90
3996;DHT22;2012;49.794;9.722;2023-07-28T02:32:51;17.40;99.90
3996;DHT22;2012;49.794;9.722;2023-07-28T02:35:18;17.40;99.90
3996;DHT22;2012;49.794;9.722;2023-07-28T02:37:47;17.40;99.90
3996;DHT22;2012;49.794;9.722;2023-07-28T02:40:14;17.40;99.90
3996;DHT22;2012;49.794;9.722;2023-07-28T02:42:41;17.30;99.90
3996;DHT22;2012;49.794;9.722;2023-07-28T02:45:08;17.30;99.90
3996;DHT22;2012;49.794;9.722;2023-07-28T02:47:37;17.30;99.90
3996;DHT22;2012;49.794;9.722;2023-07-28T02:50:04;17.30;99.90
3996;DHT22;2012;49.794;9.722;2023-07-28T02:52:31;17.30;99.90
3996;DHT22;2012;49.794;9.722;2023-07-28T02:54:58;17.20;99.90
3996;DHT22;2012;49.794;9.722;2023-07-28T02:57:27;17.30;99.90
3996;DHT22;2012;49.794;9.722;2023-07-28T02:59:54;17.30;99.90
3996;DHT22;2012;49.794;9.722;2023-07-28T03:02:21;17.30;99.90
3996;DHT22;2012;49.794;9.722;2023-07-28T03:04:49;17.30;99.90
3996;DHT22;2012;49.794;9.722;2023-07-28T03:07:16;17.30;99.90
3996;DHT22;2012;49.794;9.722;2023-07-28T03:09:47;17.30;99.90
3996;DHT22;2012;49.794;9.722;2023-07-28T03:12:14;17.30;99.90
3996;DHT22;2012;49.794;9.722;2023-07-28T03:14:41;17.30;99.90
3996;DHT22;2012;49.794;9.722;2023-07-28T03:17:08;17.40;99.90
3996;DHT22;2012;49.794;9.722;2023-07-28T03:19:35;17.40;99.90
3996;DHT22;2012;49.794;9.722;2023-07-28T03:22:02;17.30;99.90
3996;DHT22;2012;49.794;9.722;2023-07-28T03:24:29;17.30;99.90
3996;DHT22;2012;49.794;9.722;2023-07-28T03:26:56;17.40;99.90
3996;DHT22;2012;49.794;9.722;2023-07-28T03:29:23;17.40;99.90
3996;DHT22;2012;49.794;9.722;2023-07-28T03:31:50;17.40;99.90
3996;DHT22;2012;49.794;9.722;2023-07-28T03:34:18;17.40;99.90
3996;DHT22;2012;49.794;9.722;2023-07-28T03:36:45;17.40;99.90
3996;DHT22;2012;49.794;9.722;2023-07-28T03:39:14;17.40;99.90
3996;DHT22;2012;49.794;9.722;2023-07-28T03:41:43;17.40;99.90
3996;DHT22;2012;49.794;9.722;2023-07-28T03:44:10;17.40;99.90
3996;DHT22;2012;49.794;9.722;2023-07-28T03:46:37;17.40;99.90
3996;DHT22;2012;49.794;9.722;2023-07-28T03:49:05;17.40;99.90
3996;DHT22;2012;49.794;9.722;2023-07-28T03:51:32;17.40;99.90
3996;DHT22;2012;49.794;9.722;2023-07-28T03:53:58;17.40;99.90
3996;DHT22;2012;49.794;9.722;2023-07-28T03:56:25;17.40;99.90
3996;DHT22;2012;49.794;9.722;2023-07-28T03:58:55;17.50;99.90
3996;DHT22;2012;49.794;9.722;2023-07-28T04:01:22;17.50;99.90
3996;DHT22;2012;49.794;9.722;2023-07-28T04:03:49;17.50;99.90
3996;DHT22;2012;49.794;9.722;2023-07-28T04:06:16;17.50;99.90
3996;DHT22;2012;49.794;9.722;2023-07-28T04:08:43;17.50;99.90
3996;DHT22;2012;49.794;9.722;2023-07-28T04:11:09;17.50;99.90
3996;DHT22;2012;49.794;9.722;2023-07-28T04:13:36;17.50;99.90
3996;DHT22;2012;49.794;9.722;2023-07-28T04:16:03;17.50;99.90
3996;DHT22;2012;49.794;9.722;2023-07-28T04:18:31;17.40;99.90
3996;DHT22;2012;49.794;9.722;2023-07-28T04:20:58;17.50;99.90
3996;DHT22;2012;49.794;9.722;2023-07-28T04:23:25;17.50;99.90
3996;DHT22;2012;49.794;9.722;2023-07-28T04:25:52;17.50;99.90
3996;DHT22;2012;49.794;9.722;2023-07-28T04:28:20;17.50;99.90
3996;DHT22;2012;49.794;9.722;2023-07-28T04:30:47;17.50;99.90
3996;DHT22;2012;49.794;9.722;2023-07-28T04:33:33;17.50;99.90
3996;DHT22;2012;49.794;9.722;2023-07-28T04:36:03;17.50;99.90
3996;DHT22;2012;49.794;9.722;2023-07-28T04:38:33;17.50;99.90
3996;DHT22;2012;49.794;9.722;2023-07-28T04:41:01;17.50;99.90
3996;DHT22;2012;49.794;9.722;2023-07-28T04:43:46;17.60;99.90
3996;DHT22;2012;49.794;9.722;2023-07-28T04:46:12;17.50;99.90
3996;DHT22;2012;49.794;9.722;2023-07-28T04:48:41;17.50;99.90
3996;DHT22;2012;49.794;9.722;2023-07-28T04:51:28;17.50;99.90
3996;DHT22;2012;49.794;9.722;2023-07-28T04:54:21;17.50;99.90
3996;DHT22;2012;49.794;9.722;2023-07-28T04:56:48;17.50;99.90
3996;DHT22;2012;49.794;9.722;2023-07-28T04:59:16;17.50;99.90
3996;DHT22;2012;49.794;9.722;2023-07-28T05:01:43;17.60;99.90
3996;DHT22;2012;49.794;9.722;2023-07-28T05:04:10;17.50;99.90
3996;DHT22;2012;49.794;9.722;2023-07-28T05:06:37;17.50;99.90
3996;DHT22;2012;49.794;9.722;2023-07-28T05:09:04;17.50;99.90
3996;DHT22;2012;49.794;9.722;2023-07-28T05:11:35;17.50;99.90
3996;DHT22;2012;49.794;9.722;2023-07-28T05:14:02;17.60;99.90
3996;DHT22;2012;49.794;9.722;2023-07-28T05:16:30;17.60;99.90
3996;DHT22;2012;49.794;9.722;2023-07-28T05:19:17;17.60;99.90
3996;DHT22;2012;49.794;9.722;2023-07-28T05:21:56;17.60;99.90
3996;DHT22;2012;49.794;9.722;2023-07-28T05:24:38;17.60;99.90
3996;DHT22;2012;49.794;9.722;2023-07-28T05:27:06;17.70;99.90
3996;DHT22;2012;49.794;9.722;2023-07-28T05:29:33;17.70;99.90
3996;DHT22;2012;49.794;9.722;2023-07-28T05:32:04;17.60;99.90
3996;DHT22;2012;49.794;9.722;2023-07-28T05:35:07;17.70;99.90
3996;DHT22;2012;49.794;9.722;2023-07-28T05:37:34;17.70;99.90
3996;DHT22;2012;49.794;9.722;2023-07-28T05:40:01;17.60;99.90
3996;DHT22;2012;49.794;9.722;2023-07-28T05:42:31;17.70;99.90
3996;DHT22;2012;49.794;9.722;2023-07-28T05:44:59;17.80;99.90
3996;DHT22;2012;49.794;9.722;2023-07-28T05:47:26;17.80;99.90
3996;DHT22;2012;49.794;9.722;2023-07-28T05:49:53;17.80;99.90
3996;DHT22;2012;49.794;9.722;2023-07-28T05:52:20;17.80;99.90
3996;DHT22;2012;49.794;9.722;2023-07-28T05:54:49;17.80;99.90
3996;DHT22;2012;49.794;9.722;2023-07-28T05:57:16;17.80;99.90
3996;DHT22;2012;49.794;9.722;2023-07-28T05:59:43;17.80;99.90
3996;DHT22;2012;49.794;9.722;2023-07-28T06:02:10;17.80;99.90
3996;DHT22;2012;49.794;9.722;2023-07-28T06:04:45;17.90;99.90
3996;DHT22;2012;49.794;9.722;2023-07-28T06:07:12;17.80;99.90
3996;DHT22;2012;49.794;9.722;2023-07-28T06:09:39;17.90;99.90
3996;DHT22;2012;49.794;9.722;2023-07-28T06:12:06;17.90;99.90
3996;DHT22;2012;49.794;9.722;2023-07-28T06:14:33;17.90;99.90
3996;DHT22;2012;49.794;9.722;2023-07-28T06:17:02;18.00;99.90
3996;DHT22;2012;49.794;9.722;2023-07-28T06:19:32;17.90;99.90
3996;DHT22;2012;49.794;9.722;2023-07-28T06:21:58;18.00;99.90
3996;DHT22;2012;49.794;9.722;2023-07-28T06:24:26;18.00;99.90
3996;DHT22;2012;49.794;9.722;2023-07-28T06:26:53;17.90;99.90
3996;DHT22;2012;49.794;9.722;2023-07-28T06:29:20;18.00;99.90
3996;DHT22;2012;49.794;9.722;2023-07-28T06:31:47;18.00;99.90
3996;DHT22;2012;49.794;9.722;2023-07-28T06:34:14;18.00;99.90
3996;DHT22;2012;49.794;9.722;2023-07-28T06:36:41;18.00;99.90
3996;DHT22;2012;49.794;9.722;2023-07-28T06:39:08;18.00;99.90
3996;DHT22;2012;49.794;9.722;2023-07-28T06:41:35;18.00;99.90
3996;DHT22;2012;49.794;9.722;2023-07-28T06:44:07;18.00;99.90
3996;DHT22;2012;49.794;9.722;2023-07-28T06:46:35;18.00;99.90
3996;DHT22;2012;49.794;9.722;2023-07-28T06:49:02;18.00;99.90
3996;DHT22;2012;49.794;9.722;2023-07-28T06:51:30;18.00;99.90
3996;DHT22;2012;49.794;9.722;2023-07-28T06:53:57;18.00;99.90
3996;DHT22;2012;49.794;9.722;2023-07-28T06:56:25;18.10;99.90
3996;DHT22;2012;49.794;9.722;2023-07-28T06:58:52;18.10;99.90
3996;DHT22;2012;49.794;9.722;2023-07-28T07:01:38;18.10;99.90
3996;DHT22;2012;49.794;9.722;2023-07-28T07:04:05;18.10;99.90
3996;DHT22;2012;49.794;9.722;2023-07-28T07:06:33;18.10;99.90
3996;DHT22;2012;49.794;9.722;2023-07-28T07:09:00;18.10;99.90
3996;DHT22;2012;49.794;9.722;2023-07-28T07:11:27;18.10;99.90
3996;DHT22;2012;49.794;9.722;2023-07-28T07:13:54;18.10;99.90
3996;DHT22;2012;49.794;9.722;2023-07-28T07:16:20;18.10;99.90
3996;DHT22;2012;49.794;9.722;2023-07-28T07:18:53;18.10;99.90
3996;DHT22;2012;49.794;9.722;2023-07-28T07:21:20;18.10;99.90
3996;DHT22;2012;49.794;9.722;2023-07-28T07:23:47;18.10;99.90
3996;DHT22;2012;49.794;9.722;2023-07-28T07:26:26;18.10;99.90
3996;DHT22;2012;49.794;9.722;2023-07-28T07:28:53;18.10;99.90
3996;DHT22;2012;49.794;9.722;2023-07-28T07:31:20;18.10;99.90
3996;DHT22;2012;49.794;9.722;2023-07-28T07:33:47;18.20;99.90
3996;DHT22;2012;49.794;9.722;2023-07-28T07:36:15;18.20;99.90
3996;DHT22;2012;49.794;9.722;2023-07-28T07:38:43;18.10;99.90
3996;DHT22;2012;49.794;9.722;2023-07-28T07:41:13;18.10;99.90
3996;DHT22;2012;49.794;9.722;2023-07-28T07:43:47;18.20;99.90
3996;DHT22;2012;49.794;9.722;2023-07-28T07:46:15;18.20;99.90
3996;DHT22;2012;49.794;9.722;2023-07-28T07:48:42;18.20;99.90
3996;DHT22;2012;49.794;9.722;2023-07-28T07:51:10;18.30;99.90
3996;DHT22;2012;49.794;9.722;2023-07-28T07:53:37;18.30;99.90
3996;DHT22;2012;49.794;9.722;2023-07-28T07:56:05;18.30;99.90
3996;DHT22;2012;49.794;9.722;2023-07-28T07:58:32;18.30;99.90
3996;DHT22;2012;49.794;9.722;2023-07-28T08:00:59;18.40;99.90
3996;DHT22;2012;49.794;9.722;2023-07-28T08:03:26;18.40;99.90
3996;DHT22;2012;49.794;9.722;2023-07-28T08:05:54;18.40;99.90
3996;DHT22;2012;49.794;9.722;2023-07-28T08:08:21;18.40;99.90
3996;DHT22;2012;49.794;9.722;2023-07-28T08:10:49;18.40;99.90
3996;DHT22;2012;49.794;9.722;2023-07-28T08:13:16;18.50;99.90
3996;DHT22;2012;49.794;9.722;2023-07-28T08:15:43;18.50;99.90
3996;DHT22;2012;49.794;9.722;2023-07-28T08:18:14;18.50;99.90
3996;DHT22;2012;49.794;9.722;2023-07-28T08:20:41;18.50;99.90
3996;DHT22;2012;49.794;9.722;2023-07-28T08:23:08;18.50;99.90
3996;DHT22;2012;49.794;9.722;2023-07-28T08:25:35;18.50;99.90
3996;DHT22;2012;49.794;9.722;2023-07-28T08:28:03;18.60;99.90
3996;DHT22;2012;49.794;9.722;2023-07-28T08:30:30;18.50;99.90
3996;DHT22;2012;49.794;9.722;2023-07-28T08:32:58;18.60;99.90
3996;DHT22;2012;49.794;9.722;2023-07-28T08:35:25;18.60;99.90
3996;DHT22;2012;49.794;9.722;2023-07-28T08:37:52;18.60;99.90
3996;DHT22;2012;49.794;9.722;2023-07-28T08:40:19;18.60;99.90
3996;DHT22;2012;49.794;9.722;2023-07-28T08:42:46;18.60;99.90
3996;DHT22;2012;49.794;9.722;2023-07-28T08:45:14;18.70;99.90
3996;DHT22;2012;49.794;9.722;2023-07-28T08:47:41;18.70;99.90
3996;DHT22;2012;49.794;9.722;2023-07-28T08:50:08;18.80;99.90
3996;DHT22;2012;49.794;9.722;2023-07-28T08:52:36;18.70;99.90
3996;DHT22;2012;49.794;9.722;2023-07-28T08:55:03;18.80;99.90
3996;DHT22;2012;49.794;9.722;2023-07-28T08:57:29;18.90;99.90
3996;DHT22;2012;49.794;9.722;2023-07-28T08:59:56;18.90;99.90
3996;DHT22;2012;49.794;9.722;2023-07-28T09:02:23;19.10;99.90
3996;DHT22;2012;49.794;9.722;2023-07-28T09:04:50;19.20;99.90
3996;DHT22;2012;49.794;9.722;2023-07-28T09:07:17;19.30;99.90
3996;DHT22;2012;49.794;9.722;2023-07-28T09:09:44;19.40;99.90
3996;DHT22;2012;49.794;9.722;2023-07-28T09:12:11;19.50;99.90
3996;DHT22;2012;49.794;9.722;2023-07-28T09:14:38;19.50;99.90
3996;DHT22;2012;49.794;9.722;2023-07-28T09:17:12;19.60;99.90
3996;DHT22;2012;49.794;9.722;2023-07-28T09:19:53;19.70;99.90
3996;DHT22;2012;49.794;9.722;2023-07-28T09:22:21;19.80;99.90
3996;DHT22;2012;49.794;9.722;2023-07-28T09:24:48;19.80;99.90
3996;DHT22;2012;49.794;9.722;2023-07-28T09:27:23;19.80;99.90
3996;DHT22;2012;49.794;9.722;2023-07-28T09:29:55;19.90;99.90
3996;DHT22;2012;49.794;9.722;2023-07-28T09:32:29;20.00;99.90
3996;DHT22;2012;49.794;9.722;2023-07-28T09:35:25;20.10;99.90
3996;DHT22;2012;49.794;9.722;2023-07-28T09:37:53;20.30;99.90
3996;DHT22;2012;49.794;9.722;2023-07-28T09:40:22;20.60;99.90
3996;DHT22;2012;49.794;9.722;2023-07-28T09:42:50;20.50;99.90
3996;DHT22;2012;49.794;9.722;2023-07-28T09:45:22;20.50;99.90
3996;DHT22;2012;49.794;9.722;2023-07-28T09:48:05;20.40;99.90
3996;DHT22;2012;49.794;9.722;2023-07-28T09:50:37;20.30;99.90
3996;DHT22;2012;49.794;9.722;2023-07-28T09:53:08;20.30;99.90
3996;DHT22;2012;49.794;9.722;2023-07-28T09:55:38;20.30;99.90
3996;DHT22;2012;49.794;9.722;2023-07-28T09:58:09;20.30;99.90
3996;DHT22;2012;49.794;9.722;2023-07-28T10:00:37;20.40;99.90
3996;DHT22;2012;49.794;9.722;2023-07-28T10:03:04;20.40;99.90
3996;DHT22;2012;49.794;9.722;2023-07-28T10:05:32;20.50;99.90
3996;DHT22;2012;49.794;9.722;2023-07-28T10:08:01;20.60;99.90
3996;DHT22;2012;49.794;9.722;2023-07-28T10:10:30;20.70;99.90
3996;DHT22;2012;49.794;9.722;2023-07-28T10:12:58;20.70;99.90
3996;DHT22;2012;49.794;9.722;2023-07-28T10:15:32;20.70;99.90
3996;DHT22;2012;49.794;9.722;2023-07-28T10:17:59;20.80;99.90
3996;DHT22;2012;49.794;9.722;2023-07-28T10:20:38;21.00;99.90
3996;DHT22;2012;49.794;9.722;2023-07-28T10:23:14;21.10;99.90
3996;DHT22;2012;49.794;9.722;2023-07-28T10:25:42;21.20;99.90
3996;DHT22;2012;49.794;9.722;2023-07-28T10:28:45;21.20;99.90
3996;DHT22;2012;49.794;9.722;2023-07-28T10:31:12;21.20;99.90
3996;DHT22;2012;49.794;9.722;2023-07-28T10:33:44;21.20;99.90
3996;DHT22;2012;49.794;9.722;2023-07-28T10:38:41;21.30;99.90
3996;DHT22;2012;49.794;9.722;2023-07-28T10:43:39;21.30;99.90
3996;DHT22;2012;49.794;9.722;2023-07-28T10:46:11;21.30;99.90
3996;DHT22;2012;49.794;9.722;2023-07-28T10:48:43;21.40;99.90
3996;DHT22;2012;49.794;9.722;2023-07-28T10:51:12;21.50;99.90
3996;DHT22;2012;49.794;9.722;2023-07-28T10:53:39;21.60;99.90
3996;DHT22;2012;49.794;9.722;2023-07-28T10:56:06;21.60;99.90
3996;DHT22;2012;49.794;9.722;2023-07-28T10:58:37;21.60;99.90
3996;DHT22;2012;49.794;9.722;2023-07-28T11:01:04;21.50;99.90
3996;DHT22;2012;49.794;9.722;2023-07-28T11:03:31;21.60;99.90
3996;DHT22;2012;49.794;9.722;2023-07-28T11:06:03;21.60;99.90
3996;DHT22;2012;49.794;9.722;2023-07-28T11:08:30;21.70;99.90
3996;DHT22;2012;49.794;9.722;2023-07-28T11:10:57;21.70;99.90
3996;DHT22;2012;49.794;9.722;2023-07-28T11:13:24;21.70;99.90
3996;DHT22;2012;49.794;9.722;2023-07-28T11:16:07;21.90;99.90
3996;DHT22;2012;49.794;9.722;2023-07-28T11:18:34;21.90;99.90
3996;DHT22;2012;49.794;9.722;2023-07-28T11:21:01;21.90;99.90
3996;DHT22;2012;49.794;9.722;2023-07-28T11:23:29;22.00;99.90
3996;DHT22;2012;49.794;9.722;2023-07-28T11:25:56;22.00;99.90
3996;DHT22;2012;49.794;9.722;2023-07-28T11:28:23;21.90;99.90
3996;DHT22;2012;49.794;9.722;2023-07-28T11:30:50;21.90;99.90
3996;DHT22;2012;49.794;9.722;2023-07-28T11:33:17;21.90;99.90
3996;DHT22;2012;49.794;9.722;2023-07-28T11:35:45;21.90;99.90
3996;DHT22;2012;49.794;9.722;2023-07-28T11:38:13;21.90;99.90
3996;DHT22;2012;49.794;9.722;2023-07-28T11:40:41;22.00;99.90
3996;DHT22;2012;49.794;9.722;2023-07-28T11:43:08;22.00;99.90
3996;DHT22;2012;49.794;9.722;2023-07-28T11:45:35;22.10;99.90
3996;DHT22;2012;49.794;9.722;2023-07-28T11:48:06;22.10;99.90
3996;DHT22;2012;49.794;9.722;2023-07-28T11:50:40;22.10;99.90
3996;DHT22;2012;49.794;9.722;2023-07-28T11:53:09;22.20;99.90
3996;DHT22;2012;49.794;9.722;2023-07-28T11:55:36;22.30;99.90
3996;DHT22;2012;49.794;9.722;2023-07-28T11:58:05;22.40;99.90
3996;DHT22;2012;49.794;9.722;2023-07-28T12:00:36;22.50;99.90
3996;DHT22;2012;49.794;9.722;2023-07-28T12:03:08;22.50;99.90
3996;DHT22;2012;49.794;9.722;2023-07-28T12:05:41;22.50;99.90
3996;DHT22;2012;49.794;9.722;2023-07-28T12:08:12;22.30;99.90
3996;DHT22;2012;49.794;9.722;2023-07-28T12:10:54;22.30;99.90
3996;DHT22;2012;49.794;9.722;2023-07-28T12:13:24;22.40;99.90
3996;DHT22;2012;49.794;9.722;2023-07-28T12:15:56;22.40;99.90
3996;DHT22;2012;49.794;9.722;2023-07-28T12:18:29;22.40;99.90
3996;DHT22;2012;49.794;9.722;2023-07-28T12:20:59;22.50;99.90
3996;DHT22;2012;49.794;9.722;2023-07-28T12:23:26;22.60;99.90
3996;DHT22;2012;49.794;9.722;2023-07-28T12:25:56;22.60;99.90
3996;DHT22;2012;49.794;9.722;2023-07-28T12:28:25;22.70;99.90
3996;DHT22;2012;49.794;9.722;2023-07-28T12:30:52;22.70;99.90
3996;DHT22;2012;49.794;9.722;2023-07-28T12:33:23;22.80;99.90
3996;DHT22;2012;49.794;9.722;2023-07-28T12:36:04;22.90;99.90
3996;DHT22;2012;49.794;9.722;2023-07-28T12:38:35;23.10;99.90
3996;DHT22;2012;49.794;9.722;2023-07-28T12:41:05;23.20;99.90
3996;DHT22;2012;49.794;9.722;2023-07-28T12:43:35;23.00;99.90
3996;DHT22;2012;49.794;9.722;2023-07-28T12:46:05;22.90;99.90
3996;DHT22;2012;49.794;9.722;2023-07-28T12:48:35;23.00;99.90
3996;DHT22;2012;49.794;9.722;2023-07-28T12:51:14;23.00;99.90
3996;DHT22;2012;49.794;9.722;2023-07-28T12:53:56;23.00;99.90
3996;DHT22;2012;49.794;9.722;2023-07-28T12:56:23;23.00;99.90
3996;DHT22;2012;49.794;9.722;2023-07-28T12:58:53;23.00;99.90
3996;DHT22;2012;49.794;9.722;2023-07-28T13:01:22;22.90;99.90
3996;DHT22;2012;49.794;9.722;2023-07-28T13:03:49;22.90;99.90
3996;DHT22;2012;49.794;9.722;2023-07-28T13:06:16;22.90;99.90
3996;DHT22;2012;49.794;9.722;2023-07-28T13:08:43;23.00;99.90
3996;DHT22;2012;49.794;9.722;2023-07-28T13:11:13;23.10;99.90
3996;DHT22;2012;49.794;9.722;2023-07-28T13:13:43;23.30;99.90
3996;DHT22;2012;49.794;9.722;2023-07-28T13:16:10;23.60;99.90
3996;DHT22;2012;49.794;9.722;2023-07-28T13:18:39;23.90;99.90
3996;DHT22;2012;49.794;9.722;2023-07-28T13:21:06;23.80;99.90
3996;DHT22;2012;49.794;9.722;2023-07-28T13:23:33;23.70;99.90
3996;DHT22;2012;49.794;9.722;2023-07-28T13:26:00;23.50;99.90
3996;DHT22;2012;49.794;9.722;2023-07-28T13:28:26;23.40;99.90
3996;DHT22;2012;49.794;9.722;2023-07-28T13:30:53;23.30;99.90
3996;DHT22;2012;49.794;9.722;2023-07-28T13:33:20;23.20;99.90
3996;DHT22;2012;49.794;9.722;2023-07-28T13:35:48;23.20;99.90
3996;DHT22;2012;49.794;9.722;2023-07-28T13:38:15;23.30;99.90
3996;DHT22;2012;49.794;9.722;2023-07-28T13:40:42;23.30;99.90
3996;DHT22;2012;49.794;9.722;2023-07-28T13:43:09;23.40;99.90
3996;DHT22;2012;49.794;9.722;2023-07-28T13:45:43;23.30;99.90
3996;DHT22;2012;49.794;9.722;2023-07-28T13:48:10;23.20;99.90
3996;DHT22;2012;49.794;9.722;2023-07-28T13:50:51;23.10;99.90
3996;DHT22;2012;49.794;9.722;2023-07-28T13:53:22;23.20;99.90
3996;DHT22;2012;49.794;9.722;2023-07-28T13:55:52;23.20;99.90
3996;DHT22;2012;49.794;9.722;2023-07-28T13:58:22;23.10;99.90
3996;DHT22;2012;49.794;9.722;2023-07-28T14:00:49;23.10;99.90
3996;DHT22;2012;49.794;9.722;2023-07-28T14:03:16;23.10;99.90
3996;DHT22;2012;49.794;9.722;2023-07-28T14:05:44;23.10;99.90
3996;DHT22;2012;49.794;9.722;2023-07-28T14:08:11;23.00;99.90
3996;DHT22;2012;49.794;9.722;2023-07-28T14:10:38;22.80;99.90
3996;DHT22;2012;49.794;9.722;2023-07-28T14:13:09;22.40;99.90
3996;DHT22;2012;49.794;9.722;2023-07-28T14:15:36;22.40;99.90
3996;DHT22;2012;49.794;9.722;2023-07-28T14:18:06;22.20;99.90
3996;DHT22;2012;49.794;9.722;2023-07-28T14:20:33;22.20;99.90
3996;DHT22;2012;49.794;9.722;2023-07-28T14:23:00;22.20;99.90
3996;DHT22;2012;49.794;9.722;2023-07-28T14:25:28;22.20;99.90
3996;DHT22;2012;49.794;9.722;2023-07-28T14:27:55;22.30;99.90
3996;DHT22;2012;49.794;9.722;2023-07-28T14:30:22;22.40;99.90
3996;DHT22;2012;49.794;9.722;2023-07-28T14:32:49;22.30;99.90
3996;DHT22;2012;49.794;9.722;2023-07-28T14:35:16;22.30;99.90
3996;DHT22;2012;49.794;9.722;2023-07-28T14:37:43;22.30;99.90
3996;DHT22;2012;49.794;9.722;2023-07-28T14:40:10;22.30;99.90
3996;DHT22;2012;49.794;9.722;2023-07-28T14:42:37;22.30;99.90
3996;DHT22;2012;49.794;9.722;2023-07-28T14:45:06;22.20;99.90
3996;DHT22;2012;49.794;9.722;2023-07-28T14:47:33;22.20;99.90
3996;DHT22;2012;49.794;9.722;2023-07-28T14:50:00;22.10;99.90
3996;DHT22;2012;49.794;9.722;2023-07-28T14:52:27;22.20;99.90
3996;DHT22;2012;49.794;9.722;2023-07-28T14:54:54;22.20;99.90
3996;DHT22;2012;49.794;9.722;2023-07-28T14:57:21;22.20;99.90
3996;DHT22;2012;49.794;9.722;2023-07-28T15:00:01;22.20;99.90
3996;DHT22;2012;49.794;9.722;2023-07-28T15:02:28;22.20;99.90
3996;DHT22;2012;49.794;9.722;2023-07-28T15:04:55;22.20;99.90
3996;DHT22;2012;49.794;9.722;2023-07-28T15:07:22;22.00;99.90
3996;DHT22;2012;49.794;9.722;2023-07-28T15:09:49;21.90;99.90
3996;DHT22;2012;49.794;9.722;2023-07-28T15:12:16;21.80;99.90
3996;DHT22;2012;49.794;9.722;2023-07-28T15:14:43;21.60;99.90
3996;DHT22;2012;49.794;9.722;2023-07-28T15:17:10;21.60;99.90
3996;DHT22;2012;49.794;9.722;2023-07-28T15:19:37;21.60;99.90
3996;DHT22;2012;49.794;9.722;2023-07-28T15:22:04;21.40;99.90
3996;DHT22;2012;49.794;9.722;2023-07-28T15:24:31;21.40;99.90
3996;DHT22;2012;49.794;9.722;2023-07-28T15:26:58;21.30;99.90
3996;DHT22;2012;49.794;9.722;2023-07-28T15:29:25;21.10;99.90
3996;DHT22;2012;49.794;9.722;2023-07-28T15:31:52;21.20;99.90
3996;DHT22;2012;49.794;9.722;2023-07-28T15:34:21;21.20;99.90
3996;DHT22;2012;49.794;9.722;2023-07-28T15:36:48;21.20;99.90
3996;DHT22;2012;49.794;9.722;2023-07-28T15:39:15;21.10;99.90
3996;DHT22;2012;49.794;9.722;2023-07-28T15:41:42;21.10;99.90
3996;DHT22;2012;49.794;9.722;2023-07-28T15:44:09;21.10;99.90
3996;DHT22;2012;49.794;9.722;2023-07-28T15:46:36;21.10;99.90
3996;DHT22;2012;49.794;9.722;2023-07-28T15:49:04;21.10;99.90
3996;DHT22;2012;49.794;9.722;2023-07-28T15:51:31;21.20;99.90
3996;DHT22;2012;49.794;9.722;2023-07-28T15:53:58;21.20;99.90
3996;DHT22;2012;49.794;9.722;2023-07-28T15:56:25;21.20;99.90
3996;DHT22;2012;49.794;9.722;2023-07-28T15:58:52;21.20;99.90
3996;DHT22;2012;49.794;9.722;2023-07-28T16:01:19;21.10;99.90
3996;DHT22;2012;49.794;9.722;2023-07-28T16:03:45;21.20;99.90
3996;DHT22;2012;49.794;9.722;2023-07-28T16:06:13;21.10;99.90
3996;DHT22;2012;49.794;9.722;2023-07-28T16:08:39;21.20;99.90
3996;DHT22;2012;49.794;9.722;2023-07-28T16:11:06;21.10;99.90
3996;DHT22;2012;49.794;9.722;2023-07-28T16:13:33;21.10;99.90
3996;DHT22;2012;49.794;9.722;2023-07-28T16:19:36;20.80;99.90
3996;DHT22;2012;49.794;9.722;2023-07-28T16:22:04;20.90;99.90